Vernal Regional Airport
KVEL : rendu visible

Aérodrome :











RETROUVEZ-NOUS SUR...

 
LOGIN :

S'inscrire | Disclaimer

   EN    FR    IT 

 









Légende :    VFR   VFR Marginal   IFR   IFR Intensif   IFR Très Intensif
Visi : 
Plafond : 
>= 8 km
>= 3000ft
5 à 8 km
1000 à 3000 ft
1500m à 5 km
500 à 1000 ft
800 à 1500m
200 à 500 ft
< 800m
< 200 ft
Symboles :   Orages  Brouillard  Fortes neiges  Fortes précipitations  Vent > 20 kt






- Altitude de l'aérodrome : 5278 ft


KVEL - Vernal Regional

DERNIER METAR :
  • 100753Z AUTO 25005KT 10SM CLR 17/00 A3012 RMK AO2 SLP125 T01670000

METARs EXPIRÉS :
  • 100653Z AUTO 31003KT 10SM CLR 18/00 A3012 RMK AO2 SLP127 T01830000 403500106
  • 100553Z AUTO 30004KT 10SM CLR 20/01 A3011 RMK AO2 SLP125 T02000011 10333 20194 51012

TAF KVEL
Valide du 10 à 06h jusqu'au 11 à 06h UTC


100526Z 1006/1106 27004KT P6SM SKC
FM102000 20008KT P6SM FEW250
FM110200 29006KT P6SM FEW250
FIR KZLC / Amérique du Nord



MET'MAP, la Météo Aéronautique d'un coup d'oeil ! - Copyright ORBIFLY Décembre 2007 - Disclaimer

ORBIFLY MET'MAP TEAM :

Programmation & Développement : Alexandra Zaïnal
Sur une idée originale de : Baudouin d'Aumeries
Assistance à la programmation : Marc-Olivier Méhu
Soutien technique & logistique : Manuel Goepfert

Contact : metmap@orbifly.com




SOURCES & CREDITS :

   NOAA       Earth
Advisory